Alberton, MT (59820)

1:12 PM MDT on October 01, 2016 (GMT -0600)
Downtown Alberton | | Change Station

Elev 3048 ft 47.00 °N, 114.48 °W | Updated 2 minutes ago

Scattered Clouds
Scattered Clouds
67.1 °F
Feels Like 67.1 °F
N
0.0
Wind Variable Wind from SSE
Gusts 4.0 mph

Today
High -- | Low -- °F
--% Chance of Precip.
Yesterday
High -- | Low -- °F
Precip. -- in
Pressure 29.86 in
Visibility 10.0 miles
Clouds Scattered Clouds 10000 ft
Dew Point 51 °F
Humidity 56%
Rainfall in
Snow Depth Not available.
7:37 AM 7:16 PM
New Moon, 1% visible
METAR KMSO 011853Z 10006KT 10SM SCT100 18/09 A2990 RMK AO2 SLP111 T01830094
Pressure 29.86 in
Visibility 10.0 miles
Clouds Scattered Clouds 10000 ft
Dew Point 51 °F
Humidity 56%
Rainfall in
Snow Depth Not available.
7:37 AM 7:16 PM
New Moon, 1% visible
METAR KMSO 011853Z 10006KT 10SM SCT100 18/09 A2990 RMK AO2 SLP111 T01830094

10-Day Weather Forecast

Almanac

Astronomy

Oct. 01, 2016 Rise Set
Actual Time
Civil Twilight
Nautical Twilight
Astronomical Twilight
Moon
Length of Visible Light
Length of Day
Tomorrow will be .
, % of the Moon is Illuminated

Today's Extremes

State Highs State Lows

Community

WunderPhotos

Upload Photos

1,942,999 photos uploaded!

WunderBlog® & News

Nearby

Air Quality

  Air Quality AQ Index Pollutant
Not available.

Snow Depth

Station Depth Elevation

Earthquake Activity

City Distance Mag. Time & Date
Minimum magnitude displayed is 2.5.

Coastal Water Temperatures

Place Temperature

Stations

Nearby Weather Stations

Station Location Temp. Windchill Dew Point Humidity Wind Precip. Elev Updated Type
                   

Watches & Warnings

There are currently no watches in effect.